Time;durP1;ratioP1;P1;durP2;ratioP2;P2;SDS_P1;SDS_P2;PMS_P1;PMS_P2;Temp;Humidity;BMP_temperature;BMP_pressure;BME280_temperature;BME280_humidity;BME280_pressure;Samples;Min_cycle;Max_cycle;Signal;HPM_P1;HPM_P2
2022/12/18 15:03:09;;;;;;;22.17;12.50;;;0.20;76.80;;;;;;5027578;28;20320;-63
2022/12/18 15:05:35;;;;;;;22.42;11.90;;;0.30;76.90;;;;;;5027146;28;20484;-65
2022/12/18 15:08:02;;;;;;;23.83;12.93;;;0.40;76.70;;;;;;5008964;28;20488;-63
2022/12/18 15:10:34;;;;;;;18.27;10.45;;;0.50;76.50;;;;;;5009203;28;20526;-63
2022/12/18 15:13:00;;;;;;;19.55;10.05;;;0.50;76.30;;;;;;5027298;28;20377;-64
2022/12/18 15:15:39;;;;;;;23.83;11.20;;;0.60;75.20;;;;;;5013821;28;20026;-64
2022/12/18 15:18:07;;;;;;;22.85;11.25;;;0.70;74.80;;;;;;5025413;28;20026;-64
2022/12/18 15:20:40;;;;;;;20.95;12.27;;;0.80;74.20;;;;;;5026785;28;20029;-65
2022/12/18 15:23:15;;;;;;;16.75;10.70;;;0.80;73.20;;;;;;5026765;28;20079;-64
2022/12/18 15:25:40;;;;;;;18.80;10.68;;;1.00;72.00;;;;;;5026680;28;20096;-63
2022/12/18 15:28:28;;;;;;;20.67;13.48;;;1.00;71.30;;;;;;5027070;28;20109;-64
2022/12/18 15:31:02;;;;;;;17.48;9.95;;;1.00;70.90;;;;;;5026561;28;20358;-64
2022/12/18 15:33:36;;;;;;;19.35;10.63;;;1.10;69.90;;;;;;5026650;28;20029;-64
2022/12/18 15:36:05;;;;;;;19.92;11.50;;;1.10;69.40;;;;;;5026653;28;20053;-65
2022/12/18 15:38:31;;;;;;;23.20;11.20;;;1.20;69.20;;;;;;5025226;28;20024;-64
2022/12/18 15:40:58;;;;;;;20.38;10.35;;;1.20;69.20;;;;;;5026364;28;20026;-65
2022/12/18 15:43:34;;;;;;;18.42;10.70;;;1.20;69.20;;;;;;5026592;28;20026;-64
2022/12/18 15:46:24;;;;;;;20.73;10.93;;;1.20;68.90;;;;;;5025031;28;20026;-63
2022/12/18 15:48:52;;;;;;;25.20;10.67;;;1.20;69.00;;;;;;5027014;28;20368;-63
2022/12/18 15:51:27;;;;;;;17.85;9.50;;;1.10;69.00;;;;;;5026375;28;20766;-64
2022/12/18 15:53:55;;;;;;;19.98;10.90;;;1.10;69.20;;;;;;5024960;28;20087;-63
2022/12/18 15:59:12;;;;;;;22.42;11.32;;;1.20;66.90;;;;;;5026590;28;20040;-64
2022/12/18 16:01:37;;;;;;;22.75;12.27;;;1.30;65.70;;;;;;5025938;28;20087;-62
2022/12/18 16:04:03;;;;;;;20.02;10.57;;;1.30;65.60;;;;;;5026128;28;20049;-64
2022/12/18 16:06:29;;;;;;;22.95;10.15;;;1.30;65.30;;;;;;5026360;28;20025;-65
2022/12/18 16:08:55;;;;;;;22.58;11.63;;;1.30;65.60;;;;;;5025994;28;20037;-63
2022/12/18 16:11:37;;;;;;;21.15;11.13;;;1.30;65.40;;;;;;5024744;28;20117;-64
2022/12/18 16:14:26;;;;;;;18.17;10.02;;;1.30;65.30;;;;;;5015309;28;20351;-64
2022/12/18 16:16:55;;;;;;;23.92;13.27;;;1.30;64.70;;;;;;5013180;28;20354;-64
2022/12/18 16:19:22;;;;;;;22.33;11.07;;;1.40;64.10;;;;;;5013304;28;20029;-64
2022/12/18 16:21:49;;;;;;;27.92;13.07;;;1.50;62.90;;;;;;5011477;28;20030;-64
2022/12/18 16:24:21;;;;;;;22.83;11.63;;;1.60;62.40;;;;;;5012720;28;20029;-64
2022/12/18 16:26:47;;;;;;;22.35;11.25;;;1.50;62.40;;;;;;5011584;28;20469;-63
2022/12/18 16:29:13;;;;;;;20.67;9.70;;;1.50;62.70;;;;;;5011377;28;20462;-63
2022/12/18 16:31:39;;;;;;;14.55;8.55;;;1.60;62.10;;;;;;5012485;28;20028;-63
2022/12/18 16:34:27;;;;;;;21.70;10.68;;;1.70;61.40;;;;;;5012959;28;20109;-64
2022/12/18 16:36:54;;;;;;;17.48;10.63;;;1.70;61.30;;;;;;5012729;28;20026;-64
2022/12/18 16:39:21;;;;;;;19.10;10.35;;;1.80;61.70;;;;;;5012397;28;20030;-63
2022/12/18 16:41:46;;;;;;;22.77;10.93;;;1.70;62.00;;;;;;5012422;28;20037;-64
2022/12/18 16:44:13;;;;;;;16.98;9.00;;;1.70;62.30;;;;;;5012757;28;20021;-64
2022/12/18 16:46:42;;;;;;;23.90;10.90;;;1.80;62.20;;;;;;5012326;28;20033;-64
2022/12/18 16:49:08;;;;;;;20.80;11.27;;;1.70;62.60;;;;;;5012284;28;20026;-63
2022/12/18 16:51:34;;;;;;;17.33;10.23;;;1.80;62.70;;;;;;5012681;28;20030;-63
2022/12/18 16:54:00;;;;;;;21.50;11.07;;;1.80;62.70;;;;;;5012274;28;20022;-63
2022/12/18 16:56:25;;;;;;;29.88;13.20;;;1.70;62.90;;;;;;5012206;28;20018;-63
2022/12/18 16:58:56;;;;;;;29.00;10.52;;;1.80;63.20;;;;;;5012610;28;20041;-64
2022/12/18 17:01:22;;;;;;;24.15;11.00;;;1.80;63.40;;;;;;5010584;28;20138;-64
2022/12/18 17:04:09;;;;;;;24.65;12.88;;;1.80;63.60;;;;;;5011999;28;20034;-63
2022/12/18 17:06:39;;;;;;;24.95;12.10;;;1.80;63.90;;;;;;5012365;28;20026;-64
2022/12/18 17:09:08;;;;;;;23.52;13.00;;;1.70;64.30;;;;;;5012001;28;20025;-63
2022/12/18 17:11:35;;;;;;;28.73;11.75;;;1.70;64.40;;;;;;4994459;28;20026;-64
2022/12/18 17:14:11;;;;;;;27.52;12.15;;;1.80;64.70;;;;;;5012193;28;20411;-64
2022/12/18 17:16:37;;;;;;;24.02;12.13;;;1.80;65.00;;;;;;5011961;28;20106;-66
2022/12/18 17:19:02;;;;;;;23.80;12.05;;;1.80;65.40;;;;;;5010488;28;20022;-63
2022/12/18 17:21:28;;;;;;;21.95;12.02;;;1.70;65.70;;;;;;5010541;28;20061;-64
2022/12/18 17:23:54;;;;;;;19.85;10.75;;;1.70;65.90;;;;;;5011664;28;20165;-64
2022/12/18 17:26:19;;;;;;;30.00;12.55;;;1.70;66.20;;;;;;5011152;28;20022;-63
2022/12/18 17:28:46;;;;;;;25.15;12.57;;;1.70;66.60;;;;;;5011857;28;20033;-64
2022/12/18 17:31:22;;;;;;;16.13;8.85;;;1.70;66.70;;;;;;5010977;28;20477;-64
2022/12/18 17:33:48;;;;;;;25.77;12.77;;;1.60;67.30;;;;;;5011979;28;20034;-62
2022/12/18 17:36:18;;;;;;;22.27;12.43;;;1.60;67.60;;;;;;5011626;28;20053;-64
2022/12/18 17:38:50;;;;;;;20.33;11.63;;;1.50;68.10;;;;;;5011590;28;20108;-63
2022/12/18 17:41:15;;;;;;;27.52;13.50;;;1.50;68.40;;;;;;5011605;28;20029;-64
2022/12/18 17:43:44;;;;;;;28.95;13.70;;;1.50;68.60;;;;;;5011626;28;20385;-65
2022/12/18 17:46:13;;;;;;;22.02;10.75;;;1.60;68.60;;;;;;5010214;28;20025;-63
2022/12/18 17:48:39;;;;;;;24.85;13.25;;;1.50;68.80;;;;;;5010090;28;20037;-64
2022/12/18 17:51:07;;;;;;;21.17;11.00;;;1.50;69.20;;;;;;5010124;28;20113;-66
2022/12/18 17:53:33;;;;;;;27.98;13.38;;;1.40;69.60;;;;;;5011630;28;20378;-64
2022/12/18 17:56:00;;;;;;;24.17;13.65;;;1.50;69.70;;;;;;5012005;28;20022;-63
2022/12/18 17:58:27;;;;;;;23.77;13.20;;;1.40;70.00;;;;;;5010969;28;20057;-62
2022/12/18 18:00:53;;;;;;;31.58;13.50;;;1.40;69.90;;;;;;5011082;28;20045;-64
2022/12/18 18:03:20;;;;;;;27.55;13.68;;;1.50;70.00;;;;;;5011357;28;20472;-64
2022/12/18 18:05:45;;;;;;;23.90;12.95;;;1.50;70.00;;;;;;5011081;28;20022;-64
2022/12/18 18:08:11;;;;;;;24.20;12.82;;;1.50;70.10;;;;;;5009939;28;20026;-66
2022/12/18 18:10:38;;;;;;;26.58;14.88;;;1.50;70.30;;;;;;5011146;28;20030;-62
2022/12/18 18:14:05;;;;;;;32.22;15.25;;;1.40;70.60;;;;;;5010059;28;20178;-64
2022/12/18 18:16:02;;;;;;;32.25;14.93;;;1.40;70.80;;;;;;5002448;28;20118;-64
2022/12/18 18:18:28;;;;;;;26.45;15.23;;;1.50;70.60;;;;;;5009901;28;20418;-64
2022/12/18 18:20:53;;;;;;;28.65;14.50;;;1.50;70.60;;;;;;5010872;28;20026;-64
2022/12/18 18:23:19;;;;;;;27.70;14.52;;;1.50;70.70;;;;;;5009576;28;20032;-63
2022/12/18 18:25:45;;;;;;;32.05;16.83;;;1.50;70.80;;;;;;5009615;28;20026;-64
2022/12/18 18:28:11;;;;;;;28.52;15.32;;;1.60;70.70;;;;;;5011280;28;20110;-63
2022/12/18 18:30:37;;;;;;;26.40;13.55;;;1.40;71.00;;;;;;5011109;28;20110;-65
2022/12/18 18:33:03;;;;;;;31.50;14.35;;;1.50;70.90;;;;;;5010778;28;20061;-64
2022/12/18 18:35:28;;;;;;;27.27;15.48;;;1.40;71.20;;;;;;5010505;28;20022;-65
2022/12/18 18:37:54;;;;;;;29.85;15.63;;;1.50;70.90;;;;;;5010635;28;20038;-64
2022/12/18 18:40:20;;;;;;;32.03;15.40;;;1.40;70.70;;;;;;5012853;28;20026;-65
2022/12/18 18:42:46;;;;;;;32.75;16.27;;;1.50;70.10;;;;;;5012214;28;20030;-64
2022/12/18 18:45:12;;;;;;;28.85;13.98;;;1.30;70.30;;;;;;5010219;28;20424;-65
2022/12/18 18:47:38;;;;;;;27.48;15.85;;;1.30;70.40;;;;;;5009582;28;20064;-64
2022/12/18 18:50:05;;;;;;;31.50;14.43;;;1.40;69.90;;;;;;5010782;28;20157;-63
2022/12/18 18:52:31;;;;;;;30.13;15.45;;;1.40;69.70;;;;;;5009098;28;20033;-64
2022/12/18 18:54:56;;;;;;;19.70;10.40;;;1.30;70.00;;;;;;5009659;28;20030;-63
2022/12/18 18:57:22;;;;;;;28.85;14.32;;;1.40;69.70;;;;;;5009301;28;20030;-64
2022/12/18 18:59:48;;;;;;;31.90;15.30;;;1.40;69.30;;;;;;5010810;28;20112;-65
2022/12/18 19:02:15;;;;;;;32.13;14.63;;;1.40;69.30;;;;;;5010829;28;20041;-63
2022/12/18 19:04:41;;;;;;;35.53;15.15;;;1.40;69.30;;;;;;5011760;28;20037;-64
2022/12/18 19:07:07;;;;;;;30.38;15.10;;;1.30;69.60;;;;;;5011883;28;20022;-63
2022/12/18 19:09:35;;;;;;;25.58;13.63;;;1.40;69.60;;;;;;5010952;28;20030;-65
2022/12/18 19:14:45;;;;;;;27.92;14.45;;;1.30;69.60;;;;;;5010775;28;20503;-62
2022/12/18 19:17:11;;;;;;;29.77;15.48;;;1.40;69.70;;;;;;5010650;28;20026;-66
2022/12/18 19:19:36;;;;;;;32.17;15.48;;;1.40;69.50;;;;;;5010159;28;20029;-64
2022/12/18 19:22:02;;;;;;;31.45;15.15;;;1.30;70.00;;;;;;5008722;28;20380;-63
2022/12/18 19:24:28;;;;;;;31.40;14.65;;;1.40;69.60;;;;;;5010038;28;20037;-63
2022/12/18 19:26:53;;;;;;;24.73;13.93;;;1.40;69.50;;;;;;5010251;28;20079;-64
2022/12/18 19:29:19;;;;;;;22.25;10.65;;;1.30;69.70;;;;;;5008773;28;20022;-63
2022/12/18 19:31:44;;;;;;;35.60;17.30;;;1.30;69.90;;;;;;5010859;28;20079;-64
2022/12/18 19:34:11;;;;;;;32.70;16.90;;;1.40;70.00;;;;;;5010508;28;20052;-64
2022/12/18 19:36:38;;;;;;;34.95;15.55;;;1.50;69.60;;;;;;5009656;28;20018;-64
2022/12/18 19:39:16;;;;;;;31.13;16.02;;;1.40;69.40;;;;;;5010713;28;20022;-63
2022/12/18 19:41:42;;;;;;;27.33;13.30;;;1.30;69.50;;;;;;5009287;28;20038;-63
2022/12/18 19:44:14;;;;;;;32.33;15.68;;;1.30;70.20;;;;;;5010502;28;20054;-64
2022/12/18 19:46:41;;;;;;;37.53;17.27;;;1.30;70.20;;;;;;5008736;28;20057;-63
2022/12/18 19:49:06;;;;;;;33.97;15.38;;;1.30;70.00;;;;;;5012237;28;20034;-64
2022/12/18 19:51:32;;;;;;;35.55;17.20;;;1.30;70.10;;;;;;5012455;28;20427;-64
2022/12/18 19:53:59;;;;;;;40.72;17.00;;;1.40;69.90;;;;;;5014454;28;20038;-63
2022/12/18 19:56:27;;;;;;;35.40;16.80;;;1.40;69.90;;;;;;5012354;28;20389;-63
2022/12/18 19:58:53;;;;;;;39.28;16.70;;;1.30;70.20;;;;;;5013864;28;20484;-64
2022/12/18 20:01:21;;;;;;;33.15;18.02;;;1.50;69.40;;;;;;5013758;28;20073;-63
2022/12/18 20:03:47;;;;;;;34.70;14.23;;;1.50;69.40;;;;;;5012868;28;20029;-66
2022/12/18 20:06:24;;;;;;;44.30;19.10;;;1.40;69.20;;;;;;5012186;28;20401;-65
2022/12/18 20:08:51;;;;;;;37.15;15.73;;;1.30;69.80;;;;;;5013201;28;20506;-65
2022/12/18 20:11:17;;;;;;;36.65;17.63;;;1.30;70.00;;;;;;5011910;28;20022;-65
2022/12/18 20:13:42;;;;;;;31.55;12.82;;;1.30;70.30;;;;;;5011646;28;20038;-64
2022/12/18 20:16:09;;;;;;;37.30;16.33;;;1.30;69.30;;;;;;5013144;28;20076;-63
2022/12/18 20:18:35;;;;;;;39.80;18.85;;;1.20;70.00;;;;;;5012812;28;20022;-63
2022/12/18 20:21:00;;;;;;;31.75;14.80;;;1.30;69.60;;;;;;5012892;28;20524;-63
2022/12/18 20:23:26;;;;;;;40.40;17.33;;;1.20;69.50;;;;;;5011513;28;20058;-65
2022/12/18 20:25:53;;;;;;;36.05;17.05;;;1.20;69.60;;;;;;5012915;28;20033;-63
2022/12/18 20:28:19;;;;;;;36.75;17.98;;;1.40;69.00;;;;;;5012886;28;20039;-63
2022/12/18 20:30:45;;;;;;;33.97;16.25;;;1.30;69.00;;;;;;5012730;28;20477;-63
2022/12/18 20:33:10;;;;;;;34.40;16.70;;;1.40;68.80;;;;;;5012948;28;20025;-65
2022/12/18 20:35:36;;;;;;;38.22;18.17;;;1.50;68.80;;;;;;5012644;28;20110;-63
2022/12/18 20:38:02;;;;;;;31.45;15.65;;;1.40;68.60;;;;;;5011267;28;20026;-63
2022/12/18 20:40:28;;;;;;;33.33;15.13;;;1.40;68.30;;;;;;5012766;28;20033;-64
2022/12/18 20:42:54;;;;;;;34.55;15.85;;;1.30;68.70;;;;;;5013266;28;20022;-64
2022/12/18 20:45:19;;;;;;;35.03;16.38;;;1.40;68.80;;;;;;5011324;28;20057;-63
2022/12/18 20:47:45;;;;;;;32.08;14.07;;;1.50;68.80;;;;;;5012630;28;20026;-64
2022/12/18 20:50:11;;;;;;;38.78;15.23;;;1.40;68.90;;;;;;5012601;28;20022;-64
2022/12/18 20:52:36;;;;;;;35.30;15.90;;;1.40;69.20;;;;;;5012771;28;20079;-65
2022/12/18 20:55:03;;;;;;;35.97;16.55;;;1.30;70.00;;;;;;5012914;28;20030;-64
2022/12/18 20:57:29;;;;;;;36.50;16.75;;;1.40;70.00;;;;;;5011090;28;20495;-64
2022/12/18 20:59:55;;;;;;;33.05;16.73;;;1.40;70.00;;;;;;5012396;28;20117;-64
